Pedhoulas Trader — C4JM2 — position and weather

sailwx.info

Track history (hours):
 
Tides and Currents Weather Stations Pressure Air Temp Water Temp Dewpoint Dewpoint Depression Visibility Wind Speed Wind Dir Waves Ship Positions

Pedhoulas Trader

Last reported at 2017-Aug-08 12:27 UTC. Time now 2017-Sep-26 07:15 UTC.
Position N 30°17' E 124°20'.
Warning: this ship's position is 48 days out of date.

Length 229 m; draft 7.2 m.

Type: Cargo ship. MMSI: 210073000.

Date/timePositionNaut miles runAvg speedWind from/ knotsBaromVisibWave heightAir tempDewpointWater temp
2017-Aug-08 12:27N 30°17' E 124°20'2112.2
2017-Aug-08 10:44N 30°36' E 124°09'313.2
2017-Aug-08 10:30N 30°39' E 124°07'713.6
2017-Aug-08 09:59N 30°45' E 124°03'34 5.6
2017-Aug-08 03:51N 31°00' E 123°27'5 8.6
2017-Aug-08 03:14N 31°06' E 123°27'310.0
2017-Aug-08 02:59N 31°07' E 123°25'17 3.3
2017-Aug-07 21:41N 31°01' E 123°06'412.8
2017-Aug-07 21:24N 31°01' E 123°02'612.7
2017-Aug-07 20:56N 31°01' E 122°54'512.7
2017-Aug-07 20:30N 31°02' E 122°48'1313.1
2017-Aug-07 19:31N 31°05' E 122°33'015.5
2017-Aug-07 19:31N 31°05' E 122°33'713.1
2017-Aug-07 18:57N 31°06' E 122°25'714.3
2017-Aug-07 18:29N 31°07' E 122°17'714.9
2017-Aug-07 18:00N 31°11' E 122°10'714.8
2017-Aug-07 17:30N 31°14' E 122°03'713.5
2017-Aug-07 17:00N 31°16' E 121°55'611.9
2017-Aug-07 16:30N 31°17' E 121°48'510.6
2017-Aug-07 16:00N 31°19' E 121°43'3 6.6
2017-Aug-07 15:30N 31°21' E 121°39'4 8.5
2017-Aug-07 15:00N 31°23' E 121°35'4 7.5
2017-Aug-07 14:30N 31°25' E 121°31'2 4.3
2017-Aug-07 14:00N 31°26' E 121°29'510.4
2017-Aug-07 13:30N 31°30' E 121°25'612.0
2017-Aug-07 13:00N 31°34' E 121°19'714.5
2017-Aug-07 12:30N 31°39' E 121°13'714.7
2017-Aug-07 12:01N 31°44' E 121°07'714.4
2017-Aug-07 11:30N 31°47' E 120°59'612.1
2017-Aug-07 11:00N 31°51' E 120°54'1811.3
2017-Aug-07 09:22N 32°00' E 120°35'513.4
2017-Aug-07 08:58N 32°02' E 120°29'37 1.0
2017-Aug-05 20:13N 32°18' E 119°50'0 0.0
2017-Aug-05 17:19N 32°18' E 119°50'2 0.1
2017-Aug-05 01:07N 32°16' E 119°52'4 9.9
2017-Aug-05 00:41N 32°13' E 119°54'510.2
2017-Aug-05 00:14N 32°08' E 119°55'2 8.7
2017-Aug-05 00:00N 32°06' E 119°55'1 1.0
2017-Aug-04 23:25N 32°05' E 119°56'0 0.0
2017-Aug-04 22:25N 32°05' E 119°56'0 0.0
2017-Aug-04 21:43N 32°05' E 119°56'0 0.0
2017-Aug-04 21:07N 32°05' E 119°56'0 0.0
2017-Aug-04 20:55N 32°05' E 119°56'0 0.0
2017-Aug-04 20:25N 32°05' E 119°56'0 0.0
2017-Aug-04 19:55N 32°05' E 119°56'0 0.0
2017-Aug-04 16:55N 32°05' E 119°56'0 0.0
2017-Aug-04 16:25N 32°05' E 119°56'0 0.0
2017-Aug-04 15:55N 32°05' E 119°56'0 0.0
2017-Aug-04 15:25N 32°05' E 119°56'0 0.0
2017-Aug-04 14:55N 32°05' E 119°56'0 0.0
2017-Aug-04 13:21N 32°05' E 119°56'0 0.0
2017-Aug-04 11:27N 32°05' E 119°56'0 0.0
2017-Aug-04 09:45N 32°05' E 119°56'0 0.0
2017-Aug-04 07:45N 32°05' E 119°56'0 0.0
2017-Aug-04 05:11N 32°05' E 119°56'0 0.4
2017-Aug-04 04:59N 32°06' E 119°56'3 5.8
2017-Aug-04 04:28N 32°03' E 119°56'5 9.3
2017-Aug-04 03:54N 31°59' E 120°01'4 9.4
2017-Aug-04 03:30N 31°57' E 120°05'5 9.6
2017-Aug-04 03:00N 31°56' E 120°10'4 7.5
2017-Aug-04 02:30N 31°56' E 120°15'4 7.6
2017-Aug-04 02:00N 31°58' E 120°19'6 9.3
2017-Aug-04 01:19N 32°01' E 120°25'5 9.1
2017-Aug-04 00:45N 32°02' E 120°31'25 8.5
2017-Aug-03 21:45N 31°48' E 120°56'7 7.8
2017-Aug-03 20:54N 31°46' E 121°03'410.4
2017-Aug-03 20:30N 31°44' E 121°07'510.3
2017-Aug-03 20:00N 31°40' E 121°12'510.6
2017-Aug-03 19:30N 31°37' E 121°17'510.9
2017-Aug-03 19:00N 31°33' E 121°21'611.3
2017-Aug-03 18:31N 31°30' E 121°26'5 9.4
2017-Aug-03 18:00N 31°26' E 121°30'4 8.0
2017-Aug-03 17:31N 31°24' E 121°34'5 9.1
2017-Aug-03 17:01N 31°22' E 121°38'5 9.5
2017-Aug-03 16:30N 31°19' E 121°43'5 9.2
2017-Aug-03 16:01N 31°17' E 121°48'510.0
2017-Aug-03 15:30N 31°16' E 121°54'510.3
2017-Aug-03 15:00N 31°15' E 121°60'1010.1
2017-Aug-03 14:00N 31°11' E 122°11'511.0
2017-Aug-03 13:30N 31°08' E 122°16'5 9.8
2017-Aug-03 13:00N 31°06' E 122°21'4 8.6
2017-Aug-03 12:29N 31°08' E 122°26'4 8.9
2017-Aug-03 12:01N 31°07' E 122°31'611.5
2017-Aug-03 11:30N 31°07' E 122°38'2 4.3
2017-Aug-03 11:00N 31°08' E 122°40'0 0.1
2017-Aug-03 10:30N 31°08' E 122°40'0 0.2
2017-Aug-03 10:00N 31°08' E 122°40'0 0.1
2017-Aug-03 09:30N 31°08' E 122°40'0 0.1
2017-Aug-03 07:47N 31°08' E 122°40'0 0.1
2017-Aug-03 07:29N 31°08' E 122°40'0 0.1
2017-Aug-03 06:57N 31°08' E 122°40'2 0.4
2017-Aug-03 00:31N 31°07' E 122°43'1 7.1
2017-Aug-03 00:20N 31°07' E 122°45'2 6.3
2017-Aug-03 00:00N 31°07' E 122°47'77 8.9
2017-Aug-02 15:18N 29°49' E 122°42'411.8
2017-Aug-02 14:59N 29°46' E 122°40'14 9.7
2017-Aug-02 13:30N 29°40' E 122°25'511.0
2017-Aug-02 13:01N 29°42' E 122°19'5 9.1
2017-Aug-02 12:31N 29°44' E 122°14'5 9.2
2017-Aug-02 12:01N 29°46' E 122°09'0 0.3
2017-Aug-02 11:29N 29°46' E 122°09'0 0.0
2017-Aug-02 10:50N 29°46' E 122°09'0 0.0
2017-Aug-02 10:23N 29°46' E 122°09'0 0.0
2017-Aug-02 09:56N 29°46' E 122°09'0 0.0
2017-Aug-02 09:26N 29°46' E 122°09'0 0.0
2017-Aug-02 08:53N 29°46' E 122°09'0 0.0
2017-Aug-02 08:26N 29°46' E 122°09'0 0.0
2017-Aug-02 07:50N 29°46' E 122°09'0 0.0
2017-Aug-02 07:29N 29°46' E 122°09'0 0.0
2017-Aug-02 06:59N 29°46' E 122°09'0 0.0
2017-Aug-02 06:14N 29°46' E 122°09'0 0.0
2017-Aug-02 05:56N 29°46' E 122°09'0 0.0
2017-Aug-02 05:29N 29°46' E 122°09'0 0.0
2017-Aug-02 04:50N 29°46' E 122°09'0 0.0
2017-Aug-02 04:23N 29°46' E 122°09'0 0.0
2017-Aug-02 03:50N 29°46' E 122°09'0 0.0
2017-Aug-02 03:26N 29°46' E 122°09'0 0.0
2017-Aug-02 02:59N 29°46' E 122°09'0 0.0
2017-Aug-02 02:29N 29°46' E 122°09'0 0.0
2017-Aug-02 01:59N 29°46' E 122°09'  
Track history (hours):
 
Tides and Currents Weather Stations Pressure Air Temp Water Temp Dewpoint Dewpoint Depression Visibility Wind Speed Wind Dir Waves Ship Positions

Pedhoulas Trader

Last reported at 2017-Aug-08 12:27 UTC. Time now 2017-Sep-26 07:15 UTC.
Position N 30°17' E 124°20'.
Warning: this ship's position is 48 days out of date.

Length 229 m; draft 7.2 m.

Type: Cargo ship. MMSI: 210073000.

Date/timePositionNaut miles runAvg speedWind from/ knotsBaromVisibWave heightAir tempDewpointWater temp
2017-Aug-08 12:27N 30°17' E 124°20'2112.2
2017-Aug-08 10:44N 30°36' E 124°09'313.2
2017-Aug-08 10:30N 30°39' E 124°07'713.6
2017-Aug-08 09:59N 30°45' E 124°03'34 5.6
2017-Aug-08 03:51N 31°00' E 123°27'5 8.6
2017-Aug-08 03:14N 31°06' E 123°27'310.0
2017-Aug-08 02:59N 31°07' E 123°25'17 3.3
2017-Aug-07 21:41N 31°01' E 123°06'412.8
2017-Aug-07 21:24N 31°01' E 123°02'612.7
2017-Aug-07 20:56N 31°01' E 122°54'512.7
2017-Aug-07 20:30N 31°02' E 122°48'1313.1
2017-Aug-07 19:31N 31°05' E 122°33'015.5
2017-Aug-07 19:31N 31°05' E 122°33'713.1
2017-Aug-07 18:57N 31°06' E 122°25'714.3
2017-Aug-07 18:29N 31°07' E 122°17'714.9
2017-Aug-07 18:00N 31°11' E 122°10'714.8
2017-Aug-07 17:30N 31°14' E 122°03'713.5
2017-Aug-07 17:00N 31°16' E 121°55'611.9
2017-Aug-07 16:30N 31°17' E 121°48'510.6
2017-Aug-07 16:00N 31°19' E 121°43'3 6.6
2017-Aug-07 15:30N 31°21' E 121°39'4 8.5
2017-Aug-07 15:00N 31°23' E 121°35'4 7.5
2017-Aug-07 14:30N 31°25' E 121°31'2 4.3
2017-Aug-07 14:00N 31°26' E 121°29'510.4
2017-Aug-07 13:30N 31°30' E 121°25'612.0
2017-Aug-07 13:00N 31°34' E 121°19'714.5
2017-Aug-07 12:30N 31°39' E 121°13'714.7
2017-Aug-07 12:01N 31°44' E 121°07'714.4
2017-Aug-07 11:30N 31°47' E 120°59'612.1
2017-Aug-07 11:00N 31°51' E 120°54'1811.3
2017-Aug-07 09:22N 32°00' E 120°35'513.4
2017-Aug-07 08:58N 32°02' E 120°29'37 1.0
2017-Aug-05 20:13N 32°18' E 119°50'0 0.0
2017-Aug-05 17:19N 32°18' E 119°50'2 0.1
2017-Aug-05 01:07N 32°16' E 119°52'4 9.9
2017-Aug-05 00:41N 32°13' E 119°54'510.2
2017-Aug-05 00:14N 32°08' E 119°55'2 8.7
2017-Aug-05 00:00N 32°06' E 119°55'1 1.0
2017-Aug-04 23:25N 32°05' E 119°56'0 0.0
2017-Aug-04 22:25N 32°05' E 119°56'0 0.0
2017-Aug-04 21:43N 32°05' E 119°56'0 0.0
2017-Aug-04 21:07N 32°05' E 119°56'0 0.0
2017-Aug-04 20:55N 32°05' E 119°56'0 0.0
2017-Aug-04 20:25N 32°05' E 119°56'0 0.0
2017-Aug-04 19:55N 32°05' E 119°56'0 0.0
2017-Aug-04 16:55N 32°05' E 119°56'0 0.0
2017-Aug-04 16:25N 32°05' E 119°56'0 0.0
2017-Aug-04 15:55N 32°05' E 119°56'0 0.0
2017-Aug-04 15:25N 32°05' E 119°56'0 0.0
2017-Aug-04 14:55N 32°05' E 119°56'0 0.0
2017-Aug-04 13:21N 32°05' E 119°56'0 0.0
2017-Aug-04 11:27N 32°05' E 119°56'0 0.0
2017-Aug-04 09:45N 32°05' E 119°56'0 0.0
2017-Aug-04 07:45N 32°05' E 119°56'0 0.0
2017-Aug-04 05:11N 32°05' E 119°56'0 0.4
2017-Aug-04 04:59N 32°06' E 119°56'3 5.8
2017-Aug-04 04:28N 32°03' E 119°56'5 9.3
2017-Aug-04 03:54N 31°59' E 120°01'4 9.4
2017-Aug-04 03:30N 31°57' E 120°05'5 9.6
2017-Aug-04 03:00N 31°56' E 120°10'4 7.5
2017-Aug-04 02:30N 31°56' E 120°15'4 7.6
2017-Aug-04 02:00N 31°58' E 120°19'6 9.3
2017-Aug-04 01:19N 32°01' E 120°25'5 9.1
2017-Aug-04 00:45N 32°02' E 120°31'25 8.5
2017-Aug-03 21:45N 31°48' E 120°56'7 7.8
2017-Aug-03 20:54N 31°46' E 121°03'410.4
2017-Aug-03 20:30N 31°44' E 121°07'510.3
2017-Aug-03 20:00N 31°40' E 121°12'510.6
2017-Aug-03 19:30N 31°37' E 121°17'510.9
2017-Aug-03 19:00N 31°33' E 121°21'611.3
2017-Aug-03 18:31N 31°30' E 121°26'5 9.4
2017-Aug-03 18:00N 31°26' E 121°30'4 8.0
2017-Aug-03 17:31N 31°24' E 121°34'5 9.1
2017-Aug-03 17:01N 31°22' E 121°38'5 9.5
2017-Aug-03 16:30N 31°19' E 121°43'5 9.2
2017-Aug-03 16:01N 31°17' E 121°48'510.0
2017-Aug-03 15:30N 31°16' E 121°54'510.3
2017-Aug-03 15:00N 31°15' E 121°60'1010.1
2017-Aug-03 14:00N 31°11' E 122°11'511.0
2017-Aug-03 13:30N 31°08' E 122°16'5 9.8
2017-Aug-03 13:00N 31°06' E 122°21'4 8.6
2017-Aug-03 12:29N 31°08' E 122°26'4 8.9
2017-Aug-03 12:01N 31°07' E 122°31'611.5
2017-Aug-03 11:30N 31°07' E 122°38'2 4.3
2017-Aug-03 11:00N 31°08' E 122°40'0 0.1
2017-Aug-03 10:30N 31°08' E 122°40'0 0.2
2017-Aug-03 10:00N 31°08' E 122°40'0 0.1
2017-Aug-03 09:30N 31°08' E 122°40'0 0.1
2017-Aug-03 07:47N 31°08' E 122°40'0 0.1
2017-Aug-03 07:29N 31°08' E 122°40'0 0.1
2017-Aug-03 06:57N 31°08' E 122°40'2 0.4
2017-Aug-03 00:31N 31°07' E 122°43'1 7.1
2017-Aug-03 00:20N 31°07' E 122°45'2 6.3
2017-Aug-03 00:00N 31°07' E 122°47'77 8.9
2017-Aug-02 15:18N 29°49' E 122°42'411.8
2017-Aug-02 14:59N 29°46' E 122°40'14 9.7
2017-Aug-02 13:30N 29°40' E 122°25'511.0
2017-Aug-02 13:01N 29°42' E 122°19'5 9.1
2017-Aug-02 12:31N 29°44' E 122°14'5 9.2
2017-Aug-02 12:01N 29°46' E 122°09'0 0.3
2017-Aug-02 11:29N 29°46' E 122°09'0 0.0
2017-Aug-02 10:50N 29°46' E 122°09'0 0.0
2017-Aug-02 10:23N 29°46' E 122°09'0 0.0
2017-Aug-02 09:56N 29°46' E 122°09'0 0.0
2017-Aug-02 09:26N 29°46' E 122°09'0 0.0
2017-Aug-02 08:53N 29°46' E 122°09'0 0.0
2017-Aug-02 08:26N 29°46' E 122°09'0 0.0
2017-Aug-02 07:50N 29°46' E 122°09'0 0.0
2017-Aug-02 07:29N 29°46' E 122°09'0 0.0
2017-Aug-02 06:59N 29°46' E 122°09'0 0.0
2017-Aug-02 06:14N 29°46' E 122°09'0 0.0
2017-Aug-02 05:56N 29°46' E 122°09'0 0.0
2017-Aug-02 05:29N 29°46' E 122°09'0 0.0
2017-Aug-02 04:50N 29°46' E 122°09'0 0.0
2017-Aug-02 04:23N 29°46' E 122°09'0 0.0
2017-Aug-02 03:50N 29°46' E 122°09'0 0.0
2017-Aug-02 03:26N 29°46' E 122°09'0 0.0
2017-Aug-02 02:59N 29°46' E 122°09'0 0.0
2017-Aug-02 02:29N 29°46' E 122°09'0 0.0
2017-Aug-02 01:59N 29°46' E 122°09'  

Dump ship's entire track history